Accueil
METAR-TAF:

METAR-TAF

Aéroports :

Pasco, Washington, États-Unis

Tri-Cities Airport

latitude: 46-16-11N, longitude: 119-07-00W, altitude: 124 m

Observation

Le bulletin a été fait il y a 23 minutes, à 10:53 UTC
Vent 5 kt de sud/sud-est
Température -1°C
Humidité 86%
Pression 1040 hPa
Visibilité: 16.1 km
Ciel couvert à une hauteur de 2200 ft

METAR: KPSC 111053Z AUTO 16005KT 10SM OVC022 M01/M03 A3071 RMK AO2 SLP405 T10061033

Heure: 03:16 (11:16 UTC)

Prévision

Le bulletin a été fait il y a 5 heures et 42 minutes, à 05:34 UTC
Prévision valable du 11 à 06 UTC au 12 à 06 UTC
Vent 4 kt de nord/nord-ouest
Visibilité: 10 km
Ciel couvert à une hauteur de 2100 ft

TAF: KPSC 110534Z 1106/1206 33004KT P6SM OVC021

Observations et prévisions météorologiques de plus de 4000 aéroports (messages METAR et TAF).

Les stations disponibles sont représentées par des disques jaunes et rouges sur la carte.

Passer la souris dessus pour voir le nom de la station.

Cliquer dessus pour voir les observations et prévisions météorologiques.

Pour changer de carte: cliquez sur les boutons verts avec une croix noire pour zoomer, sur le bouton vert avec un tiret pour effectuer un zoom arrière, ou sur les flèches vertes pour les cartes adjacentes.


METAR-TAF: